sensor_id;sensor_type;location;lat;lon;timestamp;temperature;humidity
5009;DHT22;2523;51.058;6.922;2022-08-01T00:01:04;20.90;99.90
5009;DHT22;2523;51.058;6.922;2022-08-01T00:03:29;20.80;99.90
5009;DHT22;2523;51.058;6.922;2022-08-01T00:05:55;20.80;99.90
5009;DHT22;2523;51.058;6.922;2022-08-01T00:08:21;20.80;99.90
5009;DHT22;2523;51.058;6.922;2022-08-01T00:10:46;20.70;99.90
5009;DHT22;2523;51.058;6.922;2022-08-01T00:13:12;20.70;99.90
5009;DHT22;2523;51.058;6.922;2022-08-01T00:15:37;20.70;99.90
5009;DHT22;2523;51.058;6.922;2022-08-01T00:18:03;20.70;99.90
5009;DHT22;2523;51.058;6.922;2022-08-01T00:20:28;20.70;99.90
5009;DHT22;2523;51.058;6.922;2022-08-01T00:22:54;20.60;99.90
5009;DHT22;2523;51.058;6.922;2022-08-01T00:25:19;20.70;99.90
5009;DHT22;2523;51.058;6.922;2022-08-01T00:27:45;20.60;99.90
5009;DHT22;2523;51.058;6.922;2022-08-01T00:30:10;20.60;99.90
5009;DHT22;2523;51.058;6.922;2022-08-01T00:32:36;20.50;99.90
5009;DHT22;2523;51.058;6.922;2022-08-01T00:35:02;20.50;99.90
5009;DHT22;2523;51.058;6.922;2022-08-01T00:37:27;20.60;99.90
5009;DHT22;2523;51.058;6.922;2022-08-01T00:39:53;20.60;99.90
5009;DHT22;2523;51.058;6.922;2022-08-01T00:42:19;20.60;99.90
5009;DHT22;2523;51.058;6.922;2022-08-01T00:44:44;20.60;99.90
5009;DHT22;2523;51.058;6.922;2022-08-01T00:47:10;20.70;99.90
5009;DHT22;2523;51.058;6.922;2022-08-01T00:49:36;20.70;99.90
5009;DHT22;2523;51.058;6.922;2022-08-01T00:52:03;20.60;99.90
5009;DHT22;2523;51.058;6.922;2022-08-01T00:54:29;20.70;99.90
5009;DHT22;2523;51.058;6.922;2022-08-01T00:56:55;20.70;99.90
5009;DHT22;2523;51.058;6.922;2022-08-01T00:59:22;20.60;99.90
5009;DHT22;2523;51.058;6.922;2022-08-01T01:01:49;20.60;99.90
5009;DHT22;2523;51.058;6.922;2022-08-01T01:04:15;20.60;99.90
5009;DHT22;2523;51.058;6.922;2022-08-01T01:12:28;20.70;99.90
5009;DHT22;2523;51.058;6.922;2022-08-01T01:15:09;20.60;99.90
5009;DHT22;2523;51.058;6.922;2022-08-01T01:17:50;20.60;99.90
5009;DHT22;2523;51.058;6.922;2022-08-01T01:20:18;20.60;99.90
5009;DHT22;2523;51.058;6.922;2022-08-01T01:28:33;20.60;99.90
5009;DHT22;2523;51.058;6.922;2022-08-01T01:31:00;20.60;99.90
5009;DHT22;2523;51.058;6.922;2022-08-01T01:33:29;20.60;99.90
5009;DHT22;2523;51.058;6.922;2022-08-01T01:35:59;20.60;99.90
5009;DHT22;2523;51.058;6.922;2022-08-01T01:38:31;20.60;99.90
5009;DHT22;2523;51.058;6.922;2022-08-01T01:40:57;20.60;99.90
5009;DHT22;2523;51.058;6.922;2022-08-01T01:43:24;20.60;99.90
5009;DHT22;2523;51.058;6.922;2022-08-01T01:45:52;20.60;99.90
5009;DHT22;2523;51.058;6.922;2022-08-01T01:48:20;20.60;99.90
5009;DHT22;2523;51.058;6.922;2022-08-01T01:50:47;20.60;99.90
5009;DHT22;2523;51.058;6.922;2022-08-01T01:53:19;20.60;99.90
5009;DHT22;2523;51.058;6.922;2022-08-01T01:55:48;20.60;99.90
5009;DHT22;2523;51.058;6.922;2022-08-01T01:58:16;20.60;99.90
5009;DHT22;2523;51.058;6.922;2022-08-01T02:00:44;20.60;99.90
5009;DHT22;2523;51.058;6.922;2022-08-01T02:03:12;20.70;99.90
5009;DHT22;2523;51.058;6.922;2022-08-01T02:05:39;20.70;99.90
5009;DHT22;2523;51.058;6.922;2022-08-01T02:08:05;20.70;99.90
5009;DHT22;2523;51.058;6.922;2022-08-01T02:10:32;20.70;99.90
5009;DHT22;2523;51.058;6.922;2022-08-01T02:12:59;20.70;99.90
5009;DHT22;2523;51.058;6.922;2022-08-01T02:15:27;20.60;99.90
5009;DHT22;2523;51.058;6.922;2022-08-01T02:17:56;20.70;99.90
5009;DHT22;2523;51.058;6.922;2022-08-01T02:20:22;20.70;99.90
5009;DHT22;2523;51.058;6.922;2022-08-01T02:22:51;20.70;99.90
5009;DHT22;2523;51.058;6.922;2022-08-01T02:25:39;20.70;99.90
5009;DHT22;2523;51.058;6.922;2022-08-01T02:28:09;20.70;99.90
5009;DHT22;2523;51.058;6.922;2022-08-01T02:30:38;20.70;99.90
5009;DHT22;2523;51.058;6.922;2022-08-01T02:33:26;20.70;99.90
5009;DHT22;2523;51.058;6.922;2022-08-01T02:35:58;20.70;99.90
5009;DHT22;2523;51.058;6.922;2022-08-01T02:38:27;20.70;99.90
5009;DHT22;2523;51.058;6.922;2022-08-01T02:40:58;20.70;99.90
5009;DHT22;2523;51.058;6.922;2022-08-01T02:43:26;20.70;99.90
5009;DHT22;2523;51.058;6.922;2022-08-01T02:45:59;20.80;99.90
5009;DHT22;2523;51.058;6.922;2022-08-01T02:48:26;20.70;99.90
5009;DHT22;2523;51.058;6.922;2022-08-01T02:50:55;20.70;99.90
5009;DHT22;2523;51.058;6.922;2022-08-01T02:53:23;20.70;99.90
5009;DHT22;2523;51.058;6.922;2022-08-01T02:55:51;20.70;99.90
5009;DHT22;2523;51.058;6.922;2022-08-01T02:58:18;20.60;99.90
5009;DHT22;2523;51.058;6.922;2022-08-01T03:00:45;20.60;99.90
5009;DHT22;2523;51.058;6.922;2022-08-01T03:03:13;20.60;99.90
5009;DHT22;2523;51.058;6.922;2022-08-01T03:05:39;20.60;99.90
5009;DHT22;2523;51.058;6.922;2022-08-01T03:08:08;20.60;99.90
5009;DHT22;2523;51.058;6.922;2022-08-01T03:10:36;20.60;99.90
5009;DHT22;2523;51.058;6.922;2022-08-01T03:13:05;20.60;99.90
5009;DHT22;2523;51.058;6.922;2022-08-01T03:15:35;20.60;99.90
5009;DHT22;2523;51.058;6.922;2022-08-01T03:18:03;20.60;99.90
5009;DHT22;2523;51.058;6.922;2022-08-01T03:20:30;20.60;99.90
5009;DHT22;2523;51.058;6.922;2022-08-01T03:22:59;20.60;99.90
5009;DHT22;2523;51.058;6.922;2022-08-01T03:25:27;20.60;99.90
5009;DHT22;2523;51.058;6.922;2022-08-01T03:27:56;20.60;99.90
5009;DHT22;2523;51.058;6.922;2022-08-01T03:30:27;20.60;99.90
5009;DHT22;2523;51.058;6.922;2022-08-01T03:32:53;20.60;99.90
5009;DHT22;2523;51.058;6.922;2022-08-01T03:35:19;20.70;99.90
5009;DHT22;2523;51.058;6.922;2022-08-01T03:37:48;20.60;99.90
5009;DHT22;2523;51.058;6.922;2022-08-01T03:40:31;20.60;99.90
5009;DHT22;2523;51.058;6.922;2022-08-01T03:43:05;20.60;99.90
5009;DHT22;2523;51.058;6.922;2022-08-01T03:45:36;20.60;99.90
5009;DHT22;2523;51.058;6.922;2022-08-01T03:48:08;20.60;99.90
5009;DHT22;2523;51.058;6.922;2022-08-01T03:50:36;20.60;99.90
5009;DHT22;2523;51.058;6.922;2022-08-01T03:53:06;20.70;99.90
5009;DHT22;2523;51.058;6.922;2022-08-01T03:55:36;20.70;99.90
5009;DHT22;2523;51.058;6.922;2022-08-01T03:58:03;20.70;99.90
5009;DHT22;2523;51.058;6.922;2022-08-01T04:00:29;20.60;99.90
5009;DHT22;2523;51.058;6.922;2022-08-01T04:02:55;20.60;99.90
5009;DHT22;2523;51.058;6.922;2022-08-01T04:05:21;20.60;99.90
5009;DHT22;2523;51.058;6.922;2022-08-01T04:07:48;20.60;99.90
5009;DHT22;2523;51.058;6.922;2022-08-01T04:10:25;20.70;99.90
5009;DHT22;2523;51.058;6.922;2022-08-01T04:12:51;20.60;99.90
5009;DHT22;2523;51.058;6.922;2022-08-01T04:15:16;20.60;99.90
5009;DHT22;2523;51.058;6.922;2022-08-01T04:17:42;20.70;99.90
5009;DHT22;2523;51.058;6.922;2022-08-01T04:20:08;20.70;99.90
5009;DHT22;2523;51.058;6.922;2022-08-01T04:22:34;20.80;99.90
5009;DHT22;2523;51.058;6.922;2022-08-01T04:25:04;20.80;99.90
5009;DHT22;2523;51.058;6.922;2022-08-01T04:27:33;20.80;99.90
5009;DHT22;2523;51.058;6.922;2022-08-01T04:30:01;20.80;99.90
5009;DHT22;2523;51.058;6.922;2022-08-01T04:32:29;20.80;99.90
5009;DHT22;2523;51.058;6.922;2022-08-01T04:34:58;20.80;99.90
5009;DHT22;2523;51.058;6.922;2022-08-01T04:37:25;20.80;99.90
5009;DHT22;2523;51.058;6.922;2022-08-01T04:39:52;20.80;99.90
5009;DHT22;2523;51.058;6.922;2022-08-01T04:42:19;20.80;99.90
5009;DHT22;2523;51.058;6.922;2022-08-01T04:44:45;20.80;99.90
5009;DHT22;2523;51.058;6.922;2022-08-01T04:47:11;20.80;99.90
5009;DHT22;2523;51.058;6.922;2022-08-01T04:49:37;20.80;99.90
5009;DHT22;2523;51.058;6.922;2022-08-01T04:52:04;20.80;99.90
5009;DHT22;2523;51.058;6.922;2022-08-01T04:54:33;20.80;99.90
5009;DHT22;2523;51.058;6.922;2022-08-01T04:57:00;20.80;99.90
5009;DHT22;2523;51.058;6.922;2022-08-01T04:59:29;20.80;99.90
5009;DHT22;2523;51.058;6.922;2022-08-01T05:02:18;20.80;99.90
5009;DHT22;2523;51.058;6.922;2022-08-01T05:04:45;20.80;99.90
5009;DHT22;2523;51.058;6.922;2022-08-01T05:07:12;20.80;99.90
5009;DHT22;2523;51.058;6.922;2022-08-01T05:09:39;20.80;99.90
5009;DHT22;2523;51.058;6.922;2022-08-01T05:12:07;20.80;99.90
5009;DHT22;2523;51.058;6.922;2022-08-01T05:14:34;20.80;99.90
5009;DHT22;2523;51.058;6.922;2022-08-01T05:17:02;20.80;99.90
5009;DHT22;2523;51.058;6.922;2022-08-01T05:19:33;20.80;99.90
5009;DHT22;2523;51.058;6.922;2022-08-01T05:22:00;20.80;99.90
5009;DHT22;2523;51.058;6.922;2022-08-01T05:24:29;20.80;99.90
5009;DHT22;2523;51.058;6.922;2022-08-01T05:26:58;20.80;99.90
5009;DHT22;2523;51.058;6.922;2022-08-01T05:29:24;20.90;99.90
5009;DHT22;2523;51.058;6.922;2022-08-01T05:31:50;20.80;99.90
5009;DHT22;2523;51.058;6.922;2022-08-01T05:34:17;20.80;99.90
5009;DHT22;2523;51.058;6.922;2022-08-01T05:36:43;20.80;99.90
5009;DHT22;2523;51.058;6.922;2022-08-01T05:39:08;20.80;99.90
5009;DHT22;2523;51.058;6.922;2022-08-01T05:41:35;20.80;99.90
5009;DHT22;2523;51.058;6.922;2022-08-01T05:44:02;20.80;99.90
5009;DHT22;2523;51.058;6.922;2022-08-01T05:46:27;20.80;99.90
5009;DHT22;2523;51.058;6.922;2022-08-01T05:48:53;20.80;99.90
5009;DHT22;2523;51.058;6.922;2022-08-01T05:51:19;20.90;99.90
5009;DHT22;2523;51.058;6.922;2022-08-01T05:53:44;20.90;99.90
5009;DHT22;2523;51.058;6.922;2022-08-01T05:56:10;20.90;99.90
5009;DHT22;2523;51.058;6.922;2022-08-01T05:58:35;21.00;99.90
5009;DHT22;2523;51.058;6.922;2022-08-01T06:01:01;21.00;99.90
5009;DHT22;2523;51.058;6.922;2022-08-01T06:03:26;21.10;99.90
5009;DHT22;2523;51.058;6.922;2022-08-01T06:05:56;21.10;99.90
5009;DHT22;2523;51.058;6.922;2022-08-01T06:08:22;21.20;99.90
5009;DHT22;2523;51.058;6.922;2022-08-01T06:10:47;21.20;99.90
5009;DHT22;2523;51.058;6.922;2022-08-01T06:13:13;21.30;99.90
5009;DHT22;2523;51.058;6.922;2022-08-01T06:15:38;21.30;99.90
5009;DHT22;2523;51.058;6.922;2022-08-01T06:18:04;21.40;99.90
5009;DHT22;2523;51.058;6.922;2022-08-01T06:20:30;21.40;99.90
5009;DHT22;2523;51.058;6.922;2022-08-01T06:22:56;21.40;99.90
5009;DHT22;2523;51.058;6.922;2022-08-01T06:25:22;21.40;99.90
5009;DHT22;2523;51.058;6.922;2022-08-01T06:27:48;21.50;99.90
5009;DHT22;2523;51.058;6.922;2022-08-01T06:30:15;21.50;99.90
5009;DHT22;2523;51.058;6.922;2022-08-01T06:32:40;21.50;99.90
5009;DHT22;2523;51.058;6.922;2022-08-01T06:35:06;21.50;99.90
5009;DHT22;2523;51.058;6.922;2022-08-01T06:37:32;21.50;99.90
5009;DHT22;2523;51.058;6.922;2022-08-01T06:40:05;21.60;99.90
5009;DHT22;2523;51.058;6.922;2022-08-01T06:42:32;21.70;99.90
5009;DHT22;2523;51.058;6.922;2022-08-01T06:45:02;21.70;99.90
5009;DHT22;2523;51.058;6.922;2022-08-01T06:47:28;21.70;99.90
5009;DHT22;2523;51.058;6.922;2022-08-01T06:49:54;21.70;99.90
5009;DHT22;2523;51.058;6.922;2022-08-01T06:52:20;21.80;99.90
5009;DHT22;2523;51.058;6.922;2022-08-01T06:54:45;21.90;99.90
5009;DHT22;2523;51.058;6.922;2022-08-01T06:57:11;21.90;99.90
5009;DHT22;2523;51.058;6.922;2022-08-01T06:59:37;21.90;99.90
5009;DHT22;2523;51.058;6.922;2022-08-01T07:02:02;21.90;99.90
5009;DHT22;2523;51.058;6.922;2022-08-01T07:04:28;21.90;99.90
5009;DHT22;2523;51.058;6.922;2022-08-01T07:06:53;21.90;99.90
5009;DHT22;2523;51.058;6.922;2022-08-01T07:09:19;21.80;99.90
5009;DHT22;2523;51.058;6.922;2022-08-01T07:11:44;21.80;99.90
5009;DHT22;2523;51.058;6.922;2022-08-01T07:14:10;21.80;99.90
5009;DHT22;2523;51.058;6.922;2022-08-01T07:16:36;21.70;99.90
5009;DHT22;2523;51.058;6.922;2022-08-01T07:19:01;21.60;99.90
5009;DHT22;2523;51.058;6.922;2022-08-01T07:21:27;21.60;99.90
5009;DHT22;2523;51.058;6.922;2022-08-01T07:23:52;21.70;99.90
5009;DHT22;2523;51.058;6.922;2022-08-01T07:26:18;21.70;99.90
5009;DHT22;2523;51.058;6.922;2022-08-01T07:28:44;21.80;99.90
5009;DHT22;2523;51.058;6.922;2022-08-01T07:31:09;21.80;99.90
5009;DHT22;2523;51.058;6.922;2022-08-01T07:33:35;21.80;99.90
5009;DHT22;2523;51.058;6.922;2022-08-01T07:36:01;22.00;99.90
5009;DHT22;2523;51.058;6.922;2022-08-01T07:38:26;22.00;99.90
5009;DHT22;2523;51.058;6.922;2022-08-01T07:40:52;22.10;99.90
5009;DHT22;2523;51.058;6.922;2022-08-01T07:43:17;22.30;99.90
5009;DHT22;2523;51.058;6.922;2022-08-01T07:45:43;22.50;99.90
5009;DHT22;2523;51.058;6.922;2022-08-01T07:48:08;22.60;99.90
5009;DHT22;2523;51.058;6.922;2022-08-01T07:50:34;22.70;99.90
5009;DHT22;2523;51.058;6.922;2022-08-01T07:53:01;22.70;99.90
5009;DHT22;2523;51.058;6.922;2022-08-01T07:55:27;22.60;99.90
5009;DHT22;2523;51.058;6.922;2022-08-01T07:57:53;22.60;99.90
5009;DHT22;2523;51.058;6.922;2022-08-01T08:00:18;22.60;99.90
5009;DHT22;2523;51.058;6.922;2022-08-01T08:02:44;22.50;99.90
5009;DHT22;2523;51.058;6.922;2022-08-01T08:05:10;22.60;99.90
5009;DHT22;2523;51.058;6.922;2022-08-01T08:07:36;22.80;99.90
5009;DHT22;2523;51.058;6.922;2022-08-01T08:10:03;23.00;99.90
5009;DHT22;2523;51.058;6.922;2022-08-01T08:12:29;23.10;99.90
5009;DHT22;2523;51.058;6.922;2022-08-01T08:14:54;23.10;99.90
5009;DHT22;2523;51.058;6.922;2022-08-01T08:17:20;23.10;99.90
5009;DHT22;2523;51.058;6.922;2022-08-01T08:19:45;23.10;99.90
5009;DHT22;2523;51.058;6.922;2022-08-01T08:22:11;23.10;99.90
5009;DHT22;2523;51.058;6.922;2022-08-01T08:24:37;23.20;99.90
5009;DHT22;2523;51.058;6.922;2022-08-01T08:27:03;23.20;99.90
5009;DHT22;2523;51.058;6.922;2022-08-01T08:29:30;23.40;99.90
5009;DHT22;2523;51.058;6.922;2022-08-01T08:31:57;23.60;99.90
5009;DHT22;2523;51.058;6.922;2022-08-01T08:34:24;23.70;99.90
5009;DHT22;2523;51.058;6.922;2022-08-01T08:36:50;23.80;99.90
5009;DHT22;2523;51.058;6.922;2022-08-01T08:39:16;23.90;99.90
5009;DHT22;2523;51.058;6.922;2022-08-01T08:41:43;23.70;99.90
5009;DHT22;2523;51.058;6.922;2022-08-01T08:44:09;23.60;99.90
5009;DHT22;2523;51.058;6.922;2022-08-01T08:46:41;23.50;99.90
5009;DHT22;2523;51.058;6.922;2022-08-01T08:49:08;23.50;99.90
5009;DHT22;2523;51.058;6.922;2022-08-01T08:51:35;23.40;99.90
5009;DHT22;2523;51.058;6.922;2022-08-01T08:54:03;23.40;99.90
5009;DHT22;2523;51.058;6.922;2022-08-01T08:56:29;23.50;99.90
5009;DHT22;2523;51.058;6.922;2022-08-01T08:59:00;23.70;99.90
5009;DHT22;2523;51.058;6.922;2022-08-01T09:01:26;23.90;99.90
5009;DHT22;2523;51.058;6.922;2022-08-01T09:03:51;23.90;99.90
5009;DHT22;2523;51.058;6.922;2022-08-01T09:06:17;24.00;99.90
5009;DHT22;2523;51.058;6.922;2022-08-01T09:08:42;24.00;99.90
5009;DHT22;2523;51.058;6.922;2022-08-01T09:11:08;23.90;99.90
5009;DHT22;2523;51.058;6.922;2022-08-01T09:13:33;23.90;99.90
5009;DHT22;2523;51.058;6.922;2022-08-01T09:15:59;23.90;99.90
5009;DHT22;2523;51.058;6.922;2022-08-01T09:18:39;23.80;99.90
5009;DHT22;2523;51.058;6.922;2022-08-01T09:23:55;23.80;99.90
5009;DHT22;2523;51.058;6.922;2022-08-01T09:26:29;23.90;99.90
5009;DHT22;2523;51.058;6.922;2022-08-01T09:28:56;23.80;99.90
5009;DHT22;2523;51.058;6.922;2022-08-01T09:31:21;23.80;99.90
5009;DHT22;2523;51.058;6.922;2022-08-01T09:33:53;23.90;99.90
5009;DHT22;2523;51.058;6.922;2022-08-01T09:36:21;23.90;99.90
5009;DHT22;2523;51.058;6.922;2022-08-01T09:38:47;24.10;99.90
5009;DHT22;2523;51.058;6.922;2022-08-01T09:41:13;24.20;99.90
5009;DHT22;2523;51.058;6.922;2022-08-01T09:43:39;24.10;99.90
5009;DHT22;2523;51.058;6.922;2022-08-01T09:46:11;24.00;99.90
5009;DHT22;2523;51.058;6.922;2022-08-01T09:48:37;23.80;99.90
5009;DHT22;2523;51.058;6.922;2022-08-01T09:51:05;23.80;99.90
5009;DHT22;2523;51.058;6.922;2022-08-01T09:53:44;23.80;99.90
5009;DHT22;2523;51.058;6.922;2022-08-01T09:56:11;23.70;99.90
5009;DHT22;2523;51.058;6.922;2022-08-01T09:58:57;23.70;99.90
5009;DHT22;2523;51.058;6.922;2022-08-01T10:01:24;23.70;99.90
5009;DHT22;2523;51.058;6.922;2022-08-01T10:04:13;23.70;99.90
5009;DHT22;2523;51.058;6.922;2022-08-01T10:06:40;23.60;99.90
5009;DHT22;2523;51.058;6.922;2022-08-01T10:09:08;23.50;99.90
5009;DHT22;2523;51.058;6.922;2022-08-01T10:11:34;23.60;99.90
5009;DHT22;2523;51.058;6.922;2022-08-01T10:14:04;23.80;99.90
5009;DHT22;2523;51.058;6.922;2022-08-01T10:16:30;23.90;99.90
5009;DHT22;2523;51.058;6.922;2022-08-01T10:18:57;24.10;99.90
5009;DHT22;2523;51.058;6.922;2022-08-01T10:21:25;24.30;99.90
5009;DHT22;2523;51.058;6.922;2022-08-01T10:23:54;24.50;99.90
5009;DHT22;2523;51.058;6.922;2022-08-01T10:26:20;24.50;99.90
5009;DHT22;2523;51.058;6.922;2022-08-01T10:28:48;24.50;99.90
5009;DHT22;2523;51.058;6.922;2022-08-01T10:31:13;24.60;99.90
5009;DHT22;2523;51.058;6.922;2022-08-01T10:33:39;24.90;99.90
5009;DHT22;2523;51.058;6.922;2022-08-01T10:36:07;24.90;99.90
5009;DHT22;2523;51.058;6.922;2022-08-01T10:38:34;25.20;99.90
5009;DHT22;2523;51.058;6.922;2022-08-01T10:41:02;25.40;99.90
5009;DHT22;2523;51.058;6.922;2022-08-01T10:43:28;25.90;99.90
5009;DHT22;2523;51.058;6.922;2022-08-01T10:45:54;26.30;99.90
5009;DHT22;2523;51.058;6.922;2022-08-01T10:48:58;26.50;99.90
5009;DHT22;2523;51.058;6.922;2022-08-01T10:51:27;26.70;99.90
5009;DHT22;2523;51.058;6.922;2022-08-01T10:53:53;26.90;99.90
5009;DHT22;2523;51.058;6.922;2022-08-01T10:56:23;27.20;99.90
5009;DHT22;2523;51.058;6.922;2022-08-01T10:58:49;27.30;99.90
5009;DHT22;2523;51.058;6.922;2022-08-01T11:01:24;27.20;99.90
5009;DHT22;2523;51.058;6.922;2022-08-01T11:04:04;27.20;99.90
5009;DHT22;2523;51.058;6.922;2022-08-01T11:09:05;26.90;99.90
5009;DHT22;2523;51.058;6.922;2022-08-01T11:12:03;26.60;99.90
5009;DHT22;2523;51.058;6.922;2022-08-01T11:14:34;26.10;99.90
5009;DHT22;2523;51.058;6.922;2022-08-01T11:17:31;25.60;99.90
5009;DHT22;2523;51.058;6.922;2022-08-01T11:20:14;25.30;99.90
5009;DHT22;2523;51.058;6.922;2022-08-01T11:23:15;25.10;99.90
5009;DHT22;2523;51.058;6.922;2022-08-01T11:30:42;25.90;99.90
5009;DHT22;2523;51.058;6.922;2022-08-01T11:33:08;26.20;99.90
5009;DHT22;2523;51.058;6.922;2022-08-01T11:35:35;26.50;99.90
5009;DHT22;2523;51.058;6.922;2022-08-01T11:38:25;26.60;99.90
5009;DHT22;2523;51.058;6.922;2022-08-01T11:44:04;27.40;97.80
5009;DHT22;2523;51.058;6.922;2022-08-01T11:47:05;27.10;94.30
5009;DHT22;2523;51.058;6.922;2022-08-01T11:49:48;26.60;93.80
5009;DHT22;2523;51.058;6.922;2022-08-01T11:52:29;26.30;98.90
5009;DHT22;2523;51.058;6.922;2022-08-01T11:55:07;26.10;99.90
5009;DHT22;2523;51.058;6.922;2022-08-01T11:57:33;25.80;99.90
5009;DHT22;2523;51.058;6.922;2022-08-01T12:00:04;25.80;99.90
5009;DHT22;2523;51.058;6.922;2022-08-01T12:02:33;25.90;99.90
5009;DHT22;2523;51.058;6.922;2022-08-01T12:05:03;26.00;99.90
5009;DHT22;2523;51.058;6.922;2022-08-01T12:07:31;26.20;99.90
5009;DHT22;2523;51.058;6.922;2022-08-01T12:09:59;26.60;99.90
5009;DHT22;2523;51.058;6.922;2022-08-01T12:12:26;26.90;95.90
5009;DHT22;2523;51.058;6.922;2022-08-01T12:14:57;27.30;93.40
5009;DHT22;2523;51.058;6.922;2022-08-01T12:17:34;27.50;81.90
5009;DHT22;2523;51.058;6.922;2022-08-01T12:20:00;27.80;80.30
5009;DHT22;2523;51.058;6.922;2022-08-01T12:22:26;28.00;73.70
5009;DHT22;2523;51.058;6.922;2022-08-01T12:24:52;28.00;74.00
5009;DHT22;2523;51.058;6.922;2022-08-01T12:27:28;28.00;72.50
5009;DHT22;2523;51.058;6.922;2022-08-01T12:29:55;27.90;71.60
5009;DHT22;2523;51.058;6.922;2022-08-01T12:32:26;27.90;78.00
5009;DHT22;2523;51.058;6.922;2022-08-01T12:34:54;28.00;70.10
5009;DHT22;2523;51.058;6.922;2022-08-01T12:37:19;28.00;65.70
5009;DHT22;2523;51.058;6.922;2022-08-01T12:39:46;27.90;61.60
5009;DHT22;2523;51.058;6.922;2022-08-01T12:42:12;27.80;60.40
5009;DHT22;2523;51.058;6.922;2022-08-01T12:44:39;27.50;60.10
5009;DHT22;2523;51.058;6.922;2022-08-01T12:47:06;27.20;60.80
5009;DHT22;2523;51.058;6.922;2022-08-01T12:49:33;27.00;62.10
5009;DHT22;2523;51.058;6.922;2022-08-01T12:52:01;26.80;67.80
5009;DHT22;2523;51.058;6.922;2022-08-01T12:54:27;26.70;71.80
5009;DHT22;2523;51.058;6.922;2022-08-01T12:56:52;26.90;66.00
5009;DHT22;2523;51.058;6.922;2022-08-01T12:59:28;27.10;59.00
5009;DHT22;2523;51.058;6.922;2022-08-01T13:02:08;27.20;63.10
5009;DHT22;2523;51.058;6.922;2022-08-01T13:04:49;27.20;58.80
5009;DHT22;2523;51.058;6.922;2022-08-01T13:07:16;27.20;59.60
5009;DHT22;2523;51.058;6.922;2022-08-01T13:09:51;27.10;59.80
5009;DHT22;2523;51.058;6.922;2022-08-01T13:12:17;27.20;57.10
5009;DHT22;2523;51.058;6.922;2022-08-01T13:14:42;27.20;54.30
5009;DHT22;2523;51.058;6.922;2022-08-01T13:17:08;27.10;55.90
5009;DHT22;2523;51.058;6.922;2022-08-01T13:19:44;27.00;55.80
5009;DHT22;2523;51.058;6.922;2022-08-01T13:22:10;27.10;55.30
5009;DHT22;2523;51.058;6.922;2022-08-01T13:24:36;27.20;56.60
5009;DHT22;2523;51.058;6.922;2022-08-01T13:27:03;27.20;55.30
5009;DHT22;2523;51.058;6.922;2022-08-01T13:29:31;27.10;55.20
5009;DHT22;2523;51.058;6.922;2022-08-01T13:31:58;27.10;56.10
5009;DHT22;2523;51.058;6.922;2022-08-01T13:34:32;27.00;56.80
5009;DHT22;2523;51.058;6.922;2022-08-01T13:36:58;26.90;54.50
5009;DHT22;2523;51.058;6.922;2022-08-01T13:39:24;27.10;54.00
5009;DHT22;2523;51.058;6.922;2022-08-01T13:42:14;27.30;52.50
5009;DHT22;2523;51.058;6.922;2022-08-01T13:44:41;27.60;50.30
5009;DHT22;2523;51.058;6.922;2022-08-01T13:47:08;27.90;50.90
5009;DHT22;2523;51.058;6.922;2022-08-01T13:49:34;27.80;49.70
5009;DHT22;2523;51.058;6.922;2022-08-01T13:51:59;27.80;48.70
5009;DHT22;2523;51.058;6.922;2022-08-01T13:54:26;27.60;50.10
5009;DHT22;2523;51.058;6.922;2022-08-01T13:56:52;27.60;49.20
5009;DHT22;2523;51.058;6.922;2022-08-01T13:59:18;27.80;47.50
5009;DHT22;2523;51.058;6.922;2022-08-01T14:01:44;27.70;48.50
5009;DHT22;2523;51.058;6.922;2022-08-01T14:04:09;27.70;47.10
5009;DHT22;2523;51.058;6.922;2022-08-01T14:06:35;27.80;47.10
5009;DHT22;2523;51.058;6.922;2022-08-01T14:09:02;27.80;48.50
5009;DHT22;2523;51.058;6.922;2022-08-01T14:11:27;27.70;48.30
5009;DHT22;2523;51.058;6.922;2022-08-01T14:13:53;27.40;48.50
5009;DHT22;2523;51.058;6.922;2022-08-01T14:16:19;27.40;48.60
5009;DHT22;2523;51.058;6.922;2022-08-01T14:18:44;27.20;49.60
5009;DHT22;2523;51.058;6.922;2022-08-01T14:21:10;27.20;51.20
5009;DHT22;2523;51.058;6.922;2022-08-01T14:23:36;27.20;53.00
5009;DHT22;2523;51.058;6.922;2022-08-01T14:26:01;27.10;54.60
5009;DHT22;2523;51.058;6.922;2022-08-01T14:28:27;27.00;55.70
5009;DHT22;2523;51.058;6.922;2022-08-01T14:30:54;26.80;55.30
5009;DHT22;2523;51.058;6.922;2022-08-01T14:33:21;26.80;55.00
5009;DHT22;2523;51.058;6.922;2022-08-01T14:35:47;26.80;56.70
5009;DHT22;2523;51.058;6.922;2022-08-01T14:38:12;26.80;56.80
5009;DHT22;2523;51.058;6.922;2022-08-01T14:40:38;26.90;56.10
5009;DHT22;2523;51.058;6.922;2022-08-01T14:43:03;26.90;54.80
5009;DHT22;2523;51.058;6.922;2022-08-01T14:45:29;26.80;55.30
5009;DHT22;2523;51.058;6.922;2022-08-01T14:47:55;26.90;56.50
5009;DHT22;2523;51.058;6.922;2022-08-01T14:50:20;27.00;55.40
5009;DHT22;2523;51.058;6.922;2022-08-01T14:52:46;26.90;55.00
5009;DHT22;2523;51.058;6.922;2022-08-01T14:55:12;26.80;53.70
5009;DHT22;2523;51.058;6.922;2022-08-01T14:57:38;26.80;54.90
5009;DHT22;2523;51.058;6.922;2022-08-01T15:00:07;26.70;56.50
5009;DHT22;2523;51.058;6.922;2022-08-01T15:02:33;26.70;57.40
5009;DHT22;2523;51.058;6.922;2022-08-01T15:04:59;26.70;58.10
5009;DHT22;2523;51.058;6.922;2022-08-01T15:07:24;26.50;57.10
5009;DHT22;2523;51.058;6.922;2022-08-01T15:09:50;26.50;56.70
5009;DHT22;2523;51.058;6.922;2022-08-01T15:12:15;26.40;57.40
5009;DHT22;2523;51.058;6.922;2022-08-01T15:14:41;26.40;57.90
5009;DHT22;2523;51.058;6.922;2022-08-01T15:17:22;26.50;59.50
5009;DHT22;2523;51.058;6.922;2022-08-01T15:19:51;26.50;58.90
5009;DHT22;2523;51.058;6.922;2022-08-01T15:22:18;26.60;58.60
5009;DHT22;2523;51.058;6.922;2022-08-01T15:24:43;26.60;58.30
5009;DHT22;2523;51.058;6.922;2022-08-01T15:27:10;26.60;59.90
5009;DHT22;2523;51.058;6.922;2022-08-01T15:29:36;26.40;65.90
5009;DHT22;2523;51.058;6.922;2022-08-01T15:32:06;26.40;73.30
5009;DHT22;2523;51.058;6.922;2022-08-01T15:34:35;26.30;81.60
5009;DHT22;2523;51.058;6.922;2022-08-01T15:37:02;26.20;81.60
5009;DHT22;2523;51.058;6.922;2022-08-01T15:39:28;26.10;81.10
5009;DHT22;2523;51.058;6.922;2022-08-01T15:41:53;26.00;85.50
5009;DHT22;2523;51.058;6.922;2022-08-01T15:44:19;25.90;88.40
5009;DHT22;2523;51.058;6.922;2022-08-01T15:46:47;25.80;88.20
5009;DHT22;2523;51.058;6.922;2022-08-01T15:49:13;25.80;91.20
5009;DHT22;2523;51.058;6.922;2022-08-01T15:51:39;25.90;90.90
5009;DHT22;2523;51.058;6.922;2022-08-01T15:54:04;25.80;92.40
5009;DHT22;2523;51.058;6.922;2022-08-01T15:56:32;25.80;90.90
5009;DHT22;2523;51.058;6.922;2022-08-01T15:58:58;25.80;92.60
5009;DHT22;2523;51.058;6.922;2022-08-01T16:01:24;25.70;92.20
5009;DHT22;2523;51.058;6.922;2022-08-01T16:03:51;25.70;95.50
5009;DHT22;2523;51.058;6.922;2022-08-01T16:06:17;25.60;98.10
5009;DHT22;2523;51.058;6.922;2022-08-01T16:08:42;25.50;99.90
5009;DHT22;2523;51.058;6.922;2022-08-01T16:11:08;25.30;99.90
5009;DHT22;2523;51.058;6.922;2022-08-01T16:13:34;25.30;99.90
5009;DHT22;2523;51.058;6.922;2022-08-01T16:15:59;25.20;99.90
5009;DHT22;2523;51.058;6.922;2022-08-01T16:18:27;25.10;99.90
5009;DHT22;2523;51.058;6.922;2022-08-01T16:20:52;25.30;99.90
5009;DHT22;2523;51.058;6.922;2022-08-01T16:23:18;25.40;99.90
5009;DHT22;2523;51.058;6.922;2022-08-01T16:25:43;25.40;99.90
5009;DHT22;2523;51.058;6.922;2022-08-01T16:28:09;25.40;99.90
5009;DHT22;2523;51.058;6.922;2022-08-01T16:30:36;25.40;99.90
5009;DHT22;2523;51.058;6.922;2022-08-01T16:33:01;25.20;99.90